Time;durP1;ratioP1;P1;durP2;ratioP2;P2;SDS_P1;SDS_P2;PMS_P1;PMS_P2;Temp;Humidity;BMP_temperature;BMP_pressure;BME280_temperature;BME280_humidity;BME280_pressure;Samples;Min_cycle;Max_cycle;Signal;HPM_P1;HPM_P2
2023/06/03 00:00:41;;;;;;;7.40;2.70;;;;;;;19.37;44.78;100690.38;6201554;23;20182;-67
2023/06/03 00:03:11;;;;;;;6.57;2.20;;;;;;;19.32;44.96;100692.84;6199341;23;20197;-68
2023/06/03 00:05:41;;;;;;;7.83;2.30;;;;;;;19.22;45.21;100693.19;6200051;23;20172;-66
2023/06/03 00:08:09;;;;;;;5.63;2.53;;;;;;;19.20;45.25;100695.25;6201399;23;20187;-67
2023/06/03 00:10:36;;;;;;;5.63;2.23;;;;;;;19.18;45.07;100692.75;6202038;23;20259;-68
2023/06/03 00:13:04;;;;;;;6.43;2.40;;;;;;;19.16;45.01;100689.47;6200481;23;20207;-67
2023/06/03 00:15:32;;;;;;;8.23;2.70;;;;;;;19.13;45.09;100689.84;6201389;23;20922;-68
2023/06/03 00:18:01;;;;;;;8.93;2.73;;;;;;;19.13;45.50;100689.03;6200846;23;20180;-67
2023/06/03 00:20:29;;;;;;;8.67;2.23;;;;;;;19.15;45.14;100692.34;6202210;23;20728;-68
2023/06/03 00:22:58;;;;;;;12.70;2.93;;;;;;;19.08;45.47;100696.84;6200329;23;20583;-67
2023/06/03 00:25:26;;;;;;;7.57;2.73;;;;;;;19.06;45.42;100689.00;6203320;23;20951;-67
2023/06/03 00:27:53;;;;;;;6.80;2.70;;;;;;;19.03;45.45;100694.75;6203090;23;20208;-66
2023/06/03 00:30:21;;;;;;;9.53;3.13;;;;;;;19.01;45.79;100691.41;6202029;23;20212;-67
2023/06/03 00:32:49;;;;;;;6.40;2.43;;;;;;;19.01;45.44;100691.41;6203463;23;20204;-67
2023/06/03 00:35:17;;;;;;;7.60;2.73;;;;;;;18.99;45.68;100696.19;6203646;23;20558;-68
2023/06/03 00:37:44;;;;;;;11.53;2.40;;;;;;;18.99;45.91;100696.19;6200194;23;20184;-69
2023/06/03 00:40:13;;;;;;;5.53;2.20;;;;;;;18.95;45.90;100700.28;6202964;23;20249;-67
2023/06/03 00:42:41;;;;;;;11.20;2.47;;;;;;;18.88;45.73;100699.41;6200396;23;20238;-67
2023/06/03 00:45:10;;;;;;;8.23;2.37;;;;;;;18.83;45.97;100696.47;6201015;23;20195;-66
2023/06/03 00:47:38;;;;;;;10.70;2.60;;;;;;;18.81;46.17;100703.09;6199117;23;20707;-67
2023/06/03 00:50:07;;;;;;;6.43;2.33;;;;;;;18.83;46.00;100687.56;6201195;23;20184;-69
2023/06/03 00:52:37;;;;;;;7.27;2.27;;;;;;;18.78;46.40;100696.25;6203153;23;20242;-68
2023/06/03 00:55:06;;;;;;;7.43;2.43;;;;;;;18.78;46.13;100690.88;6201453;23;20202;-68
2023/06/03 00:57:35;;;;;;;7.70;2.40;;;;;;;18.74;46.40;100692.28;6200837;23;20235;-68
2023/06/03 01:00:03;;;;;;;8.77;2.57;;;;;;;18.70;46.12;100691.03;6202695;23;20184;-66
2023/06/03 01:02:31;;;;;;;6.63;2.23;;;;;;;18.69;46.37;100692.03;6201656;23;20566;-67
2023/06/03 01:05:03;;;;;;;6.60;2.40;;;;;;;18.64;46.76;100689.13;6201268;23;20215;-66
2023/06/03 01:07:41;;;;;;;6.97;2.77;;;;;;;18.59;46.84;100686.16;6202234;23;20655;-69
2023/06/03 01:10:20;;;;;;;9.27;2.63;;;;;;;18.64;46.77;100689.13;6203418;23;20172;-66
2023/06/03 01:12:58;;;;;;;10.47;2.90;;;;;;;18.59;46.71;100681.63;6202382;23;20604;-68
2023/06/03 01:15:28;;;;;;;9.40;2.70;;;;;;;18.49;47.09;100678.41;6203204;23;20172;-68
2023/06/03 01:18:01;;;;;;;9.07;2.60;;;;;;;18.46;47.08;100678.00;6202215;23;20188;-67
2023/06/03 01:20:29;;;;;;;8.93;2.73;;;;;;;18.49;47.11;100674.91;6203411;23;20200;-66
2023/06/03 01:23:20;;;;;;;10.37;2.33;;;;;;;18.46;47.13;100676.16;6203716;23;20534;-67
2023/06/03 01:25:50;;;;;;;7.37;2.63;;;;;;;18.47;47.09;100671.59;6202438;23;20184;-65
2023/06/03 01:28:20;;;;;;;7.47;2.43;;;;;;;18.46;47.39;100672.63;6202016;23;20200;-67
2023/06/03 01:30:48;;;;;;;4.97;2.53;;;;;;;18.45;47.33;100668.28;6202391;23;20219;-67
2023/06/03 01:33:17;;;;;;;6.63;2.50;;;;;;;18.47;47.13;100669.72;6205056;23;20545;-68
2023/06/03 01:35:46;;;;;;;7.53;2.40;;;;;;;18.48;46.99;100666.00;6201979;23;20900;-68
2023/06/03 01:38:14;;;;;;;7.47;2.80;;;;;;;18.52;47.11;100674.53;6203291;23;20235;-68
2023/06/03 01:40:44;;;;;;;10.43;2.40;;;;;;;18.48;46.90;100667.88;6202733;23;20889;-68
2023/06/03 01:43:12;;;;;;;6.10;2.50;;;;;;;18.45;46.91;100662.91;6202206;23;20188;-66
2023/06/03 01:45:40;;;;;;;10.37;2.73;;;;;;;18.43;47.22;100673.84;6203061;23;20839;-67
2023/06/03 01:48:08;;;;;;;6.20;2.43;;;;;;;18.40;47.34;100667.00;6201227;23;20290;-66
2023/06/03 01:50:36;;;;;;;10.27;2.90;;;;;;;18.34;47.71;100670.47;6202107;23;20644;-66
2023/06/03 01:53:04;;;;;;;8.17;2.40;;;;;;;18.29;47.62;100664.84;6203497;23;20211;-68
2023/06/03 01:55:31;;;;;;;11.17;2.70;;;;;;;18.24;47.92;100669.13;6203254;23;20242;-69
2023/06/03 01:58:01;;;;;;;6.40;3.17;;;;;;;18.26;47.69;100665.22;6203320;23;20287;-69
2023/06/03 02:00:29;;;;;;;8.00;2.80;;;;;;;18.26;47.56;100675.97;6203316;23;20184;-67
2023/06/03 02:02:56;;;;;;;7.20;3.20;;;;;;;18.28;47.68;100668.56;6203205;23;20259;-66
2023/06/03 02:05:24;;;;;;;6.07;2.33;;;;;;;18.25;47.54;100671.63;6204069;23;20964;-66
2023/06/03 02:07:52;;;;;;;6.93;2.77;;;;;;;18.26;47.73;100677.81;6202358;23;20259;-66
2023/06/03 02:10:19;;;;;;;9.70;3.33;;;;;;;18.27;47.33;100674.94;6204080;23;20295;-67
2023/06/03 02:12:47;;;;;;;10.63;3.10;;;;;;;18.27;47.66;100674.94;6201243;23;20214;-68
2023/06/03 02:15:16;;;;;;;7.80;2.70;;;;;;;18.25;47.51;100668.94;6200797;23;20947;-66
2023/06/03 02:17:44;;;;;;;8.27;3.10;;;;;;;18.24;47.75;100671.81;6200934;23;20180;-67
2023/06/03 02:20:12;;;;;;;7.97;2.90;;;;;;;18.19;47.78;100679.63;6202171;23;20358;-68
2023/06/03 02:22:40;;;;;;;6.93;2.83;;;;;;;18.17;47.95;100670.94;6201748;23;20286;-68
2023/06/03 02:25:09;;;;;;;7.00;3.00;;;;;;;18.18;47.79;100668.06;6203798;23;20188;-68
2023/06/03 02:27:38;;;;;;;10.40;3.27;;;;;;;18.13;47.99;100662.41;6200277;23;20211;-66
2023/06/03 02:30:07;;;;;;;6.60;2.70;;;;;;;18.08;48.37;100678.28;6203398;23;20191;-67
2023/06/03 02:32:36;;;;;;;9.97;3.10;;;;;;;18.01;48.50;100672.03;6201083;23;20719;-67
2023/06/03 02:35:04;;;;;;;8.97;2.60;;;;;;;18.00;48.74;100681.09;6201560;23;20270;-67
2023/06/03 02:37:32;;;;;;;8.60;3.00;;;;;;;17.94;48.77;100673.81;6200642;23;20180;-67
2023/06/03 02:40:00;;;;;;;7.17;3.13;;;;;;;17.94;48.52;100671.94;6201468;23;20191;-68
2023/06/03 02:42:27;;;;;;;7.87;3.10;;;;;;;17.95;48.40;100678.13;6202969;23;20212;-67
2023/06/03 02:44:55;;;;;;;6.93;2.67;;;;;;;17.98;48.70;100680.44;6202467;23;20227;-66
2023/06/03 02:47:23;;;;;;;6.87;2.63;;;;;;;18.00;48.38;100681.91;6201557;23;20296;-68
2023/06/03 02:49:52;;;;;;;9.27;3.27;;;;;;;18.04;48.43;100688.53;6203576;23;20279;-67
2023/06/03 02:52:20;;;;;;;12.00;3.03;;;;;;;18.04;48.60;100682.34;6203062;23;20184;-66
2023/06/03 02:54:47;;;;;;;8.57;2.63;;;;;;;18.00;48.53;100681.09;6204945;23;20200;-67
2023/06/03 02:57:15;;;;;;;9.17;3.13;;;;;;;17.97;48.78;100687.66;6203102;23;20665;-66
2023/06/03 02:59:43;;;;;;;12.27;3.40;;;;;;;17.93;48.78;100689.06;6204719;23;20187;-67
2023/06/03 03:02:11;;;;;;;7.87;3.20;;;;;;;17.91;48.92;100693.78;6204095;23;20254;-70
2023/06/03 03:04:38;;;;;;;6.73;3.03;;;;;;;17.91;49.09;100692.97;6203373;23;20215;-68
2023/06/03 03:07:08;;;;;;;9.40;3.07;;;;;;;17.89;49.25;100700.38;6202972;23;20259;-67
2023/06/03 03:09:36;;;;;;;10.33;3.20;;;;;;;17.87;49.16;100700.53;6204354;23;20187;-66
2023/06/03 03:12:05;;;;;;;9.37;3.17;;;;;;;17.85;49.26;100696.41;6204178;23;20239;-66
2023/06/03 03:14:33;;;;;;;11.47;3.90;;;;;;;17.82;49.28;100699.47;6204138;23;20215;-67
2023/06/03 03:17:01;;;;;;;13.47;3.90;;;;;;;17.81;48.96;100703.16;6204222;23;20184;-68
2023/06/03 03:19:28;;;;;;;9.90;3.83;;;;;;;17.68;49.48;100699.31;6204763;23;20870;-68
2023/06/03 03:21:56;;;;;;;11.20;3.40;;;;;;;17.70;49.76;100709.00;6205070;23;20637;-68
2023/06/03 03:24:26;;;;;;;10.40;3.40;;;;;;;17.67;49.44;100711.06;6205023;23;20176;-68
2023/06/03 03:26:53;;;;;;;7.77;2.80;;;;;;;17.71;49.17;100698.09;6203632;23;20220;-68
2023/06/03 03:29:23;;;;;;;10.03;3.90;;;;;;;17.72;49.67;100715.84;6204988;23;20203;-67
2023/06/03 03:31:59;;;;;;;9.67;3.17;;;;;;;17.60;49.71;100702.06;6204162;23;20593;-68
2023/06/03 03:34:30;;;;;;;8.07;3.47;;;;;;;17.62;49.72;100710.78;6205422;23;20200;-66
2023/06/03 03:36:59;;;;;;;7.80;3.27;;;;;;;17.67;49.49;100697.66;6204647;23;20192;-68
2023/06/03 03:39:29;;;;;;;8.27;2.93;;;;;;;17.67;49.70;100708.41;6204528;23;20184;-67
2023/06/03 03:41:56;;;;;;;6.77;2.80;;;;;;;17.63;49.81;100709.78;6204521;23;20215;-67
2023/06/03 03:44:29;;;;;;;9.83;3.50;;;;;;;17.62;49.70;100716.16;6204546;23;20295;-68
2023/06/03 03:47:00;;;;;;;8.13;3.07;;;;;;;17.62;49.35;100718.84;6203939;23;20259;-67
2023/06/03 03:49:31;;;;;;;10.00;3.23;;;;;;;17.64;49.52;100719.47;6204668;23;20230;-67
2023/06/03 03:52:04;;;;;;;8.83;2.70;;;;;;;17.64;49.54;100719.47;6203414;23;20670;-68
2023/06/03 03:54:35;;;;;;;7.87;3.57;;;;;;;17.61;49.64;100716.31;6202200;23;20192;-66
2023/06/03 03:57:11;;;;;;;7.80;3.70;;;;;;;17.60;49.59;100720.00;6203992;23;20186;-67
2023/06/03 03:59:40;;;;;;;8.57;3.10;;;;;;;17.59;49.96;100710.31;6204045;23;20180;-67
2023/06/03 04:02:07;;;;;;;10.03;3.63;;;;;;;17.60;49.51;100718.16;6203960;23;20184;-67
2023/06/03 04:04:42;;;;;;;6.97;2.87;;;;;;;17.61;49.48;100714.44;6202487;23;20187;-68
2023/06/03 04:07:11;;;;;;;11.23;3.07;;;;;;;17.64;49.37;100724.84;6201291;23;20215;-66
2023/06/03 04:09:40;;;;;;;10.80;3.20;;;;;;;17.64;49.72;100724.00;6202590;23;20215;-66
2023/06/03 04:12:18;;;;;;;7.97;3.10;;;;;;;17.62;49.64;100721.50;6204347;23;20652;-68
2023/06/03 04:14:50;;;;;;;8.03;3.37;;;;;;;17.63;49.28;100728.53;6202804;23;20291;-67
2023/06/03 04:17:21;;;;;;;5.60;3.00;;;;;;;17.61;49.93;100716.31;6201699;23;20894;-67
2023/06/03 04:19:49;;;;;;;8.97;3.00;;;;;;;17.59;49.63;100721.84;6203750;23;20188;-67
2023/06/03 04:22:21;;;;;;;12.47;3.93;;;;;;;17.62;49.65;100726.03;6201690;23;20315;-66
2023/06/03 04:24:56;;;;;;;7.63;3.17;;;;;;;17.57;49.82;100721.22;6202168;23;20188;-67
2023/06/03 04:27:25;;;;;;;6.73;3.10;;;;;;;17.59;49.93;100731.78;6204164;23;20200;-68
2023/06/03 04:29:52;;;;;;;12.47;3.60;;;;;;;17.64;50.01;100724.84;6201728;23;20184;-67
2023/06/03 04:32:20;;;;;;;7.77;3.17;;;;;;;17.62;50.19;100731.41;6203994;23;20694;-67
2023/06/03 04:34:52;;;;;;;7.77;3.27;;;;;;;17.62;49.96;100726.88;6203715;23;20200;-68
2023/06/03 04:37:21;;;;;;;7.53;3.17;;;;;;;17.61;49.94;100725.19;6200208;23;20263;-66
2023/06/03 04:39:49;;;;;;;10.87;3.83;;;;;;;17.59;50.33;100726.41;6202868;23;20372;-69
2023/06/03 04:42:18;;;;;;;8.97;3.80;;;;;;;17.60;49.78;100723.50;6202395;23;20268;-66
2023/06/03 04:44:48;;;;;;;7.90;3.43;;;;;;;17.59;49.97;100727.22;6199959;23;20271;-66
2023/06/03 04:47:17;;;;;;;6.57;2.93;;;;;;;17.60;50.03;100728.03;6202368;23;20728;-67
2023/06/03 04:49:47;;;;;;;12.77;4.63;;;;;;;17.59;50.05;100727.22;6202043;23;20180;-67
2023/06/03 04:52:15;;;;;;;13.23;3.57;;;;;;;17.61;49.91;100717.13;6201904;23;20188;-68
2023/06/03 04:54:43;;;;;;;12.27;3.70;;;;;;;17.63;49.74;100728.53;6201259;23;20243;-67
2023/06/03 04:57:10;;;;;;;8.13;3.53;;;;;;;17.67;49.81;100731.69;6201459;23;20180;-67
2023/06/03 04:59:40;;;;;;;9.53;3.53;;;;;;;17.65;49.71;100726.50;6201618;23;20184;-68
2023/06/03 05:02:08;;;;;;;7.83;4.00;;;;;;;17.60;50.32;100723.50;6199854;23;20188;-68
2023/06/03 05:04:37;;;;;;;13.67;4.20;;;;;;;17.62;49.83;100723.38;6202005;23;20219;-67
2023/06/03 05:07:05;;;;;;;6.50;3.73;;;;;;;17.68;50.17;100717.25;6200573;23;20227;-68
2023/06/03 05:09:33;;;;;;;8.67;3.63;;;;;;;17.71;49.86;100719.56;6203287;23;20187;-61
2023/06/03 05:12:01;;;;;;;13.60;3.87;;;;;;;17.68;50.74;100726.13;6204312;23;20271;-65
2023/06/03 05:14:29;;;;;;;11.43;3.97;;;;;;;17.62;51.08;100726.88;6205511;23;20675;-63
2023/06/03 05:16:58;;;;;;;8.33;3.43;;;;;;;17.58;50.86;100725.56;6205031;23;20184;-63
2023/06/03 05:19:26;;;;;;;8.90;4.00;;;;;;;17.57;51.03;100731.13;6205822;23;20238;-62
2023/06/03 05:21:53;;;;;;;10.27;3.97;;;;;;;17.54;51.21;100718.91;6206409;23;20235;-68
2023/06/03 05:24:21;;;;;;;8.27;3.60;;;;;;;17.58;51.28;100719.38;6206861;23;20180;-66
2023/06/03 05:26:49;;;;;;;14.07;3.50;;;;;;;17.59;51.45;100715.69;6206065;23;20180;-63
2023/06/03 05:29:17;;;;;;;8.87;3.90;;;;;;;17.63;51.32;100717.81;6206321;23;20180;-62
2023/06/03 05:31:44;;;;;;;10.13;3.23;;;;;;;17.67;50.76;100719.13;6206534;23;20574;-67
2023/06/03 05:34:14;;;;;;;11.70;3.77;;;;;;;17.68;51.04;100722.59;6207201;23;20234;-64
2023/06/03 05:36:42;;;;;;;8.63;3.27;;;;;;;17.66;51.43;100717.44;6205126;23;21000;-64
2023/06/03 05:39:11;;;;;;;10.37;3.60;;;;;;;17.68;51.25;100718.06;6206125;23;20296;-64
2023/06/03 05:41:39;;;;;;;7.63;3.87;;;;;;;17.73;51.10;100722.88;6206835;23;20177;-64
2023/06/03 05:44:08;;;;;;;9.67;3.87;;;;;;;17.76;51.18;100725.22;6205995;23;20656;-63
2023/06/03 05:46:35;;;;;;;9.77;4.37;;;;;;;17.78;51.57;100731.19;6206334;23;20184;-63
2023/06/03 05:49:03;;;;;;;10.57;4.50;;;;;;;17.76;51.44;100732.41;6205724;23;20191;-61
2023/06/03 05:51:32;;;;;;;6.83;4.10;;;;;;;17.84;51.08;100740.34;6207237;23;20426;-63
2023/06/03 05:54:00;;;;;;;12.43;4.77;;;;;;;17.88;51.33;100738.94;6205361;23;20204;-65
2023/06/03 05:56:28;;;;;;;8.07;4.20;;;;;;;17.92;51.25;100726.81;6205546;23;20203;-64
2023/06/03 05:58:57;;;;;;;8.63;3.93;;;;;;;17.95;51.44;100721.88;6206223;23;20176;-63
2023/06/03 06:01:25;;;;;;;10.90;3.80;;;;;;;18.02;50.62;100722.81;6205174;23;20184;-64
2023/06/03 06:03:53;;;;;;;11.33;4.03;;;;;;;18.07;50.16;100718.72;6206964;23;20904;-62
2023/06/03 06:06:25;;;;;;;9.20;3.97;;;;;;;18.14;50.15;100723.13;6204639;23;20179;-62
2023/06/03 06:08:56;;;;;;;7.17;3.30;;;;;;;18.18;50.19;100720.91;6207085;23;20271;-64
2023/06/03 06:11:26;;;;;;;10.10;3.80;;;;;;;18.17;50.44;100725.44;6205791;23;20680;-66
2023/06/03 06:13:54;;;;;;;10.40;4.07;;;;;;;18.21;49.64;100726.69;6205929;23;20187;-61
2023/06/03 06:16:22;;;;;;;7.30;4.00;;;;;;;18.22;49.80;100723.00;6205756;23;20600;-64
2023/06/03 06:18:50;;;;;;;5.27;3.37;;;;;;;18.26;49.61;100724.28;6207563;23;20184;-68
2023/06/03 06:21:18;;;;;;;10.97;4.47;;;;;;;18.33;49.82;100718.97;6206079;23;20180;-62
2023/06/03 06:23:46;;;;;;;8.63;3.13;;;;;;;18.36;49.63;100724.81;6203815;23;20216;-62
2023/06/03 06:26:16;;;;;;;7.73;3.23;;;;;;;18.40;49.53;100723.38;6201510;23;20188;-64
2023/06/03 06:28:45;;;;;;;10.60;3.77;;;;;;;18.44;49.35;100715.78;6203895;23;20359;-66
2023/06/03 06:31:16;;;;;;;7.97;3.90;;;;;;;18.48;48.99;100724.25;6204620;23;20211;-62
2023/06/03 06:33:47;;;;;;;9.10;3.63;;;;;;;18.50;49.15;100719.53;6204917;23;20792;-63
2023/06/03 06:36:30;;;;;;;15.80;4.50;;;;;;;18.52;49.08;100717.50;6204005;23;20527;-62
2023/06/03 06:38:58;;;;;;;12.13;4.30;;;;;;;18.57;49.49;100715.06;6204597;23;20580;-62
2023/06/03 06:41:28;;;;;;;9.37;3.77;;;;;;;18.60;48.87;100722.75;6206378;23;20714;-62
2023/06/03 06:43:56;;;;;;;6.97;3.50;;;;;;;18.65;48.61;100720.31;6204433;23;20262;-63
2023/06/03 06:46:25;;;;;;;10.37;4.00;;;;;;;18.66;48.96;100724.66;6204615;23;20234;-61
2023/06/03 06:48:53;;;;;;;6.97;4.07;;;;;;;18.71;48.37;100720.38;6205535;23;20493;-63
2023/06/03 06:51:20;;;;;;;8.47;3.60;;;;;;;18.74;48.73;100719.13;6205144;23;20215;-64
2023/06/03 06:53:52;;;;;;;9.20;3.50;;;;;;;18.79;48.39;100722.91;6205991;23;20179;-63
2023/06/03 06:56:21;;;;;;;5.50;2.87;;;;;;;18.80;47.96;100721.06;6203776;23;20207;-63
2023/06/03 06:58:50;;;;;;;11.23;3.67;;;;;;;18.84;48.36;100716.94;6203596;23;20180;-65
2023/06/03 07:01:18;;;;;;;8.13;3.87;;;;;;;18.87;48.49;100716.56;6205797;23;20223;-64
2023/06/03 07:03:45;;;;;;;7.53;3.33;;;;;;;18.89;48.13;100714.50;6203653;23;20184;-63
2023/06/03 07:06:16;;;;;;;10.70;3.40;;;;;;;18.92;47.81;100718.63;6203006;23;20650;-62
2023/06/03 07:08:45;;;;;;;9.57;3.43;;;;;;;18.97;47.78;100727.78;6205553;23;20176;-64
2023/06/03 07:11:12;;;;;;;7.97;2.77;;;;;;;19.03;47.46;100720.78;6205724;23;20263;-61
2023/06/03 07:13:40;;;;;;;7.90;3.10;;;;;;;19.05;47.87;100711.50;6207114;23;20271;-64
2023/06/03 07:16:09;;;;;;;7.63;3.53;;;;;;;19.09;47.29;100712.75;6203820;23;20490;-67
2023/06/03 07:18:38;;;;;;;8.73;3.60;;;;;;;19.15;47.39;100712.00;6203712;23;20184;-64
2023/06/03 07:21:06;;;;;;;6.97;2.93;;;;;;;19.22;47.12;100716.56;6203429;23;20216;-62
2023/06/03 07:23:35;;;;;;;6.87;3.70;;;;;;;19.28;47.21;100718.44;6204154;23;20212;-62
2023/06/03 07:26:04;;;;;;;8.57;3.63;;;;;;;19.34;47.19;100712.31;6204141;23;20222;-64
2023/06/03 07:28:33;;;;;;;6.27;2.77;;;;;;;19.42;47.12;100709.44;6204645;23;20632;-64
2023/06/03 07:31:05;;;;;;;7.30;3.90;;;;;;;19.52;47.30;100709.94;6203667;23;20184;-66
2023/06/03 07:33:38;;;;;;;13.03;3.40;;;;;;;19.61;47.29;100708.75;6204090;23;20180;-62
2023/06/03 07:36:06;;;;;;;12.70;3.80;;;;;;;19.63;47.29;100703.97;6203552;23;20250;-64
2023/06/03 07:38:59;;;;;;;13.03;3.60;;;;;;;19.69;47.41;100715.78;6204110;23;20188;-66
2023/06/03 07:41:39;;;;;;;7.37;3.43;;;;;;;19.72;46.44;100710.81;6197950;23;20525;-63
2023/06/03 07:44:08;;;;;;;11.00;3.60;;;;;;;19.77;46.39;100719.13;6204968;23;20183;-62
2023/06/03 07:46:39;;;;;;;8.60;3.63;;;;;;;19.83;46.40;100710.25;6204414;23;20188;-64
2023/06/03 07:49:10;;;;;;;7.33;3.60;;;;;;;19.89;46.34;100712.13;6204519;23;20699;-62
2023/06/03 07:51:41;;;;;;;5.97;3.20;;;;;;;19.98;46.01;100711.94;6204436;23;20250;-65
2023/06/03 07:54:10;;;;;;;7.13;3.73;;;;;;;20.06;46.05;100711.72;6202035;23;20250;-62
2023/06/03 07:56:38;;;;;;;5.50;2.93;;;;;;;20.12;45.86;100717.16;6201234;23;20244;-64
2023/06/03 07:59:07;;;;;;;6.93;2.97;;;;;;;20.18;45.64;100720.88;6206765;23;20195;-62
2023/06/03 08:01:35;;;;;;;5.83;3.37;;;;;;;20.29;45.46;100712.22;6204533;23;20224;-64
2023/06/03 08:04:06;;;;;;;8.70;3.37;;;;;;;20.34;45.54;100709.75;6206597;23;20222;-62
2023/06/03 08:06:37;;;;;;;5.80;3.37;;;;;;;20.41;45.97;100715.97;6204719;23;20264;-66
2023/06/03 08:09:05;;;;;;;6.17;3.00;;;;;;;20.47;45.67;100707.06;6204570;23;20187;-64
2023/06/03 08:11:36;;;;;;;5.07;2.60;;;;;;;20.54;45.34;100710.59;6206257;23;20193;-64
2023/06/03 08:14:04;;;;;;;5.97;3.33;;;;;;;20.62;45.56;100713.06;6204372;23;20215;-64
2023/06/03 08:16:35;;;;;;;8.20;3.60;;;;;;;20.74;44.89;100720.53;6202750;23;20214;-64
2023/06/03 08:19:04;;;;;;;7.67;3.40;;;;;;;20.81;45.51;100713.28;6203361;23;20248;-63
2023/06/03 08:21:33;;;;;;;10.03;3.27;;;;;;;20.89;45.11;100715.75;6199541;23;20499;-64
2023/06/03 08:24:02;;;;;;;7.70;3.57;;;;;;;20.98;45.27;100711.78;6202676;23;20219;-64
2023/06/03 08:26:30;;;;;;;5.97;3.27;;;;;;;21.05;45.29;100720.69;6204001;23;20894;-63
2023/06/03 08:28:58;;;;;;;8.57;3.40;;;;;;;21.14;45.03;100724.00;6203654;23;20243;-64
2023/06/03 08:31:26;;;;;;;7.90;3.33;;;;;;;21.22;44.43;100716.53;6203511;23;20238;-62
2023/06/03 08:33:54;;;;;;;8.83;3.33;;;;;;;21.30;44.32;100718.16;6204187;23;20477;-63
2023/06/03 08:36:22;;;;;;;9.13;3.73;;;;;;;21.38;44.10;100718.75;6204176;23;20246;-63
2023/06/03 08:38:50;;;;;;;9.97;3.60;;;;;;;21.47;44.22;100716.66;6204617;23;20189;-65
2023/06/03 08:41:19;;;;;;;9.97;3.87;;;;;;;21.54;44.39;100722.88;6201838;23;20184;-64
2023/06/03 08:43:51;;;;;;;12.10;3.73;;;;;;;21.64;44.46;100719.69;6203230;23;20188;-63
2023/06/03 08:46:24;;;;;;;10.13;3.60;;;;;;;21.73;44.36;100731.91;6201830;23;20287;-64
2023/06/03 08:49:00;;;;;;;9.40;3.47;;;;;;;21.83;43.85;100716.09;6205525;23;20964;-63
2023/06/03 08:51:29;;;;;;;7.17;3.23;;;;;;;21.91;43.53;100726.63;6204909;23;20211;-64
2023/06/03 08:53:57;;;;;;;14.30;4.40;;;;;;;21.95;43.30;100719.78;6205039;23;20211;-65
2023/06/03 08:56:27;;;;;;;7.70;3.53;;;;;;;22.00;43.94;100717.25;6201602;23;20602;-68
2023/06/03 08:58:58;;;;;;;8.80;3.60;;;;;;;22.10;43.67;100724.91;6204542;23;20714;-66
2023/06/03 09:01:28;;;;;;;8.57;3.20;;;;;;;22.17;43.47;100722.16;6204623;23;20271;-65
2023/06/03 09:03:58;;;;;;;9.60;3.90;;;;;;;22.15;43.31;100719.69;6207304;23;20646;-64
2023/06/03 09:06:27;;;;;;;6.35;2.92;;;;;;;22.14;43.82;100715.31;6205866;23;20176;-62
2023/06/03 09:08:57;;;;;;;5.17;2.90;;;;;;;22.20;43.27;100722.56;6202774;23;20211;-62
2023/06/03 09:11:29;;;;;;;9.02;3.67;;;;;;;22.26;43.32;100727.06;6202442;23;20287;-65
2023/06/03 09:13:58;;;;;;;13.43;3.87;;;;;;;22.30;43.31;100716.66;6201971;23;20641;-67
2023/06/03 09:16:28;;;;;;;11.57;3.83;;;;;;;22.34;44.73;100723.31;6202536;23;20314;-67
2023/06/03 09:18:57;;;;;;;12.95;4.05;;;;;;;22.44;44.33;100718.22;6204995;23;20184;-67
2023/06/03 09:21:27;;;;;;;9.63;3.95;;;;;;;22.53;43.38;100712.31;6202180;23;20202;-65
2023/06/03 09:23:55;;;;;;;10.98;3.53;;;;;;;22.65;43.05;100711.59;6202219;23;20223;-63
2023/06/03 09:26:23;;;;;;;9.60;3.50;;;;;;;22.71;42.91;100713.41;6204653;23;20227;-63
2023/06/03 09:28:52;;;;;;;8.98;3.65;;;;;;;22.77;42.32;100713.41;6204260;23;20208;-63
2023/06/03 09:31:21;;;;;;;11.23;4.07;;;;;;;22.85;42.43;100715.84;6207083;23;20560;-64
2023/06/03 09:33:50;;;;;;;6.80;3.47;;;;;;;22.98;42.02;100712.16;6208267;23;20191;-62
2023/06/03 09:36:18;;;;;;;8.60;3.53;;;;;;;23.07;41.65;100712.69;6208213;23;20211;-62
2023/06/03 09:38:51;;;;;;;7.47;3.88;;;;;;;23.11;40.83;100716.63;6207164;23;20598;-66
2023/06/03 09:41:20;;;;;;;9.30;4.10;;;;;;;23.13;41.44;100717.22;6205919;23;20184;-62
2023/06/03 09:43:57;;;;;;;11.52;3.42;;;;;;;23.24;41.73;100719.16;6205101;23;21019;-63
2023/06/03 09:46:26;;;;;;;9.00;3.42;;;;;;;23.32;41.04;100718.84;6202488;23;20517;-63
2023/06/03 09:48:54;;;;;;;11.82;4.13;;;;;;;23.39;40.85;100727.75;6203643;23;20508;-64
2023/06/03 09:51:40;;;;;;;7.05;3.58;;;;;;;23.33;40.84;100717.81;6203715;23;20181;-62
2023/06/03 09:54:10;;;;;;;13.25;3.60;;;;;;;23.48;40.99;100714.75;6203002;23;20504;-62
2023/06/03 09:56:38;;;;;;;7.35;3.55;;;;;;;23.57;40.60;100713.41;6203072;23;20291;-64
2023/06/03 09:59:16;;;;;;;10.73;3.10;;;;;;;23.67;39.87;100713.69;6205220;23;20291;-64
2023/06/03 10:01:45;;;;;;;10.15;4.07;;;;;;;23.74;40.03;100709.03;6204532;23;20180;-63
2023/06/03 10:04:15;;;;;;;12.23;3.92;;;;;;;23.74;40.26;100729.84;6202085;23;20243;-63
2023/06/03 10:06:43;;;;;;;9.38;3.47;;;;;;;23.82;39.20;100716.00;6203078;23;20191;-63
2023/06/03 10:09:21;;;;;;;10.38;3.78;;;;;;;23.77;38.94;100708.56;6205735;23;20825;-64
2023/06/03 10:11:50;;;;;;;7.72;3.25;;;;;;;23.92;39.39;100705.44;6212736;23;20229;-64
2023/06/03 10:14:26;;;;;;;8.18;4.07;;;;;;;23.86;39.02;100700.94;6212376;23;20180;-63
2023/06/03 10:17:05;;;;;;;6.78;3.10;;;;;;;24.00;39.40;100692.41;6211446;23;20188;-62
2023/06/03 10:19:34;;;;;;;8.13;3.60;;;;;;;24.16;38.65;100698.22;6211399;23;20644;-64
2023/06/03 10:22:03;;;;;;;9.02;3.33;;;;;;;24.22;38.70;100698.13;6211972;23;20270;-63
2023/06/03 10:24:34;;;;;;;8.35;3.38;;;;;;;24.29;39.34;100689.91;6214182;23;20498;-65
2023/06/03 10:27:02;;;;;;;7.28;2.92;;;;;;;24.25;38.93;100700.41;6213120;23;20587;-65
2023/06/03 10:29:33;;;;;;;9.40;3.65;;;;;;;24.24;37.97;100687.91;6214217;23;20227;-67
2023/06/03 10:32:02;;;;;;;7.65;3.25;;;;;;;24.38;37.49;100692.03;6215377;23;20647;-64
2023/06/03 10:34:30;;;;;;;10.20;3.58;;;;;;;24.37;37.19;100687.69;6211829;23;20184;-70
2023/06/03 10:37:01;;;;;;;5.65;2.95;;;;;;;24.57;37.63;100687.34;6207162;23;20176;-64
2023/06/03 10:39:29;;;;;;;12.73;3.38;;;;;;;24.74;37.80;100682.06;6208603;23;20184;-65
2023/06/03 10:41:59;;;;;;;9.88;3.63;;;;;;;24.88;37.28;100678.06;6212785;23;20203;-65
2023/06/03 10:44:27;;;;;;;8.48;3.45;;;;;;;24.95;37.50;100678.78;6211504;23;20235;-64
2023/06/03 10:47:08;;;;;;;8.88;3.38;;;;;;;25.00;36.92;100683.47;6214415;23;20180;-63
2023/06/03 10:49:44;;;;;;;6.45;3.05;;;;;;;24.91;36.65;100683.00;6215319;23;20219;-62
2023/06/03 10:52:38;;;;;;;7.97;3.33;;;;;;;25.06;37.12;100669.81;6214260;23;20620;-65
2023/06/03 10:55:21;;;;;;;8.23;3.30;;;;;;;25.15;36.59;100672.97;6214503;23;20263;-63
2023/06/03 10:57:52;;;;;;;9.85;3.28;;;;;;;25.13;36.60;100661.53;6214454;23;20250;-64
2023/06/03 11:00:55;;;;;;;10.98;3.58;;;;;;;25.12;36.15;100673.44;6214578;23;20264;-63
2023/06/03 11:03:25;;;;;;;7.30;3.47;;;;;;;25.05;35.56;100673.59;6214930;23;20168;-63
2023/06/03 11:05:54;;;;;;;6.22;3.33;;;;;;;25.41;35.86;100679.75;6214104;23;20199;-64
2023/06/03 11:09:00;;;;;;;10.10;3.17;;;;;;;25.44;35.20;100669.22;6215632;23;20218;-63
2023/06/03 11:11:58;;;;;;;8.27;3.15;;;;;;;25.67;35.30;100671.09;6211958;23;20179;-66
2023/06/03 11:14:57;;;;;;;6.57;3.33;;;;;;;25.59;35.65;100660.63;6207333;23;20183;-64
2023/06/03 11:17:26;;;;;;;8.32;3.78;;;;;;;25.67;35.41;100670.25;6206715;23;20204;-66
2023/06/03 11:19:59;;;;;;;14.07;3.85;;;;;;;25.78;35.04;100667.47;6204019;23;20187;-65
2023/06/03 11:22:45;;;;;;;6.80;3.33;;;;;;;25.83;35.14;100664.03;6202977;23;20208;-64
2023/06/03 11:25:32;;;;;;;7.95;3.35;;;;;;;25.82;35.34;100663.22;6205185;23;20702;-65
2023/06/03 11:28:36;;;;;;;7.50;3.53;;;;;;;25.73;34.67;100670.09;6206691;23;20577;-64
2023/06/03 11:31:07;;;;;;;9.30;3.97;;;;;;;25.74;35.20;100673.66;6212405;23;20168;-63
2023/06/03 11:33:36;;;;;;;8.07;3.83;;;;;;;25.85;35.11;100668.16;6209762;23;20878;-65
2023/06/03 11:36:56;;;;;;;9.77;3.63;;;;;;;25.94;34.98;100660.44;6207283;23;20260;-65